Time;durP1;ratioP1;P1;durP2;ratioP2;P2;SDS_P1;SDS_P2;PMS_P1;PMS_P2;Temp;Humidity;BMP_temperature;BMP_pressure;BME280_temperature;BME280_humidity;BME280_pressure;Samples;Min_cycle;Max_cycle;Signal;HPM_P1;HPM_P2
2020/12/31 00:01:18;;;;;;;42.20;36.67;;;4.90;1.00;;;;;;5014647;28;20609;-72
2020/12/31 00:03:43;;;;;;;37.77;33.77;;;5.00;1.00;;;;;;5014833;28;20175;-72
2020/12/31 00:06:09;;;;;;;42.13;38.67;;;5.00;1.00;;;;;;5014314;28;20217;-72
2020/12/31 00:08:34;;;;;;;49.53;45.53;;;5.00;1.00;;;;;;5014856;28;20218;-72
2020/12/31 00:11:00;;;;;;;49.00;44.97;;;5.00;1.00;;;;;;5014963;28;20617;-72
2020/12/31 00:13:25;;;;;;;41.70;37.67;;;4.90;1.00;;;;;;5014512;28;20645;-72
2020/12/31 00:15:51;;;;;;;41.53;38.03;;;4.80;1.00;;;;;;5045790;28;20552;-72
2020/12/31 00:18:16;;;;;;;38.70;34.97;;;4.80;1.00;;;;;;5014399;28;20690;-71
2020/12/31 00:20:42;;;;;;;44.33;39.97;;;4.80;1.00;;;;;;5014524;28;20171;-72
2020/12/31 00:23:07;;;;;;;47.30;43.30;;;4.70;1.00;;;;;;5014867;28;20245;-72
2020/12/31 00:25:45;;;;;;;46.00;41.60;;;4.70;1.00;;;;;;5014504;28;20167;-72
2020/12/31 00:28:10;;;;;;;46.83;42.33;;;4.70;1.00;;;;;;5045898;28;20238;-72
2020/12/31 00:30:36;;;;;;;45.80;41.00;;;4.70;1.00;;;;;;5014213;28;20202;-72
2020/12/31 00:33:02;;;;;;;45.10;41.20;;;4.70;1.00;;;;;;5014320;28;20183;-72
2020/12/31 00:35:29;;;;;;;46.50;41.78;;;4.70;1.00;;;;;;5014326;28;20205;-72
2020/12/31 00:37:54;;;;;;;40.40;36.55;;;4.60;1.00;;;;;;5014376;28;20207;-72
2020/12/31 00:40:20;;;;;;;49.27;44.20;;;4.60;1.00;;;;;;5014240;28;20172;-72
2020/12/31 00:42:46;;;;;;;44.67;40.30;;;4.50;1.00;;;;;;5014654;28;20620;-71
2020/12/31 00:45:11;;;;;;;43.33;39.23;;;4.50;1.00;;;;;;5045893;28;20414;-72
2020/12/31 00:47:37;;;;;;;47.20;42.33;;;4.50;1.00;;;;;;5013948;28;20199;-72
2020/12/31 00:50:04;;;;;;;51.97;47.40;;;4.50;1.00;;;;;;5014252;28;20174;-72
2020/12/31 00:52:29;;;;;;;47.78;42.47;;;4.50;1.00;;;;;;5014395;28;20176;-72
2020/12/31 00:54:55;;;;;;;44.87;40.67;;;4.50;1.00;;;;;;5014400;28;20186;-71
2020/12/31 00:57:20;;;;;;;58.13;53.13;;;4.50;1.00;;;;;;5013616;28;20281;-72
2020/12/31 00:59:46;;;;;;;51.40;46.47;;;4.50;1.00;;;;;;5013902;28;20167;-71
2020/12/31 01:02:12;;;;;;;52.23;47.40;;;4.50;1.00;;;;;;5013978;28;20201;-71
2020/12/31 01:04:37;;;;;;;44.70;40.13;;;4.50;1.00;;;;;;5014038;28;20175;-72
2020/12/31 01:07:03;;;;;;;47.73;43.00;;;4.40;1.00;;;;;;5013318;28;20214;-72
2020/12/31 01:09:29;;;;;;;47.40;42.60;;;4.40;1.00;;;;;;5014325;28;20167;-72
2020/12/31 01:11:56;;;;;;;46.47;41.70;;;4.40;1.00;;;;;;5014347;28;20688;-72
2020/12/31 01:14:22;;;;;;;53.58;48.70;;;4.40;1.00;;;;;;5013753;28;20172;-72
2020/12/31 01:16:49;;;;;;;51.22;46.33;;;4.40;1.00;;;;;;5013536;28;20210;-72
2020/12/31 01:19:14;;;;;;;55.05;49.85;;;4.40;1.00;;;;;;5013976;28;20683;-72
2020/12/31 01:21:46;;;;;;;51.37;46.97;;;4.30;1.00;;;;;;5014034;28;20179;-72
2020/12/31 01:24:15;;;;;;;52.60;47.80;;;4.30;1.00;;;;;;5013777;28;20182;-72
2020/12/31 01:26:41;;;;;;;53.42;48.20;;;4.30;1.00;;;;;;5016762;28;20629;-72
2020/12/31 01:29:06;;;;;;;45.97;41.67;;;4.30;1.00;;;;;;5049711;28;20186;-71
2020/12/31 01:31:32;;;;;;;50.60;45.83;;;4.30;1.00;;;;;;5017674;28;20179;-72
2020/12/31 01:33:58;;;;;;;49.57;44.70;;;4.20;1.00;;;;;;5017839;28;20233;-72
2020/12/31 01:36:24;;;;;;;49.07;44.50;;;4.20;1.00;;;;;;5017552;28;20199;-72
2020/12/31 01:38:50;;;;;;;48.80;44.45;;;4.20;1.00;;;;;;5017898;28;20525;-72
2020/12/31 01:41:22;;;;;;;46.25;41.63;;;4.20;1.00;;;;;;5017191;28;20637;-72
2020/12/31 01:44:08;;;;;;;45.63;41.08;;;4.20;1.00;;;;;;5017396;28;20172;-72
2020/12/31 01:46:36;;;;;;;40.33;35.90;;;4.10;1.00;;;;;;5016880;28;20203;-72
2020/12/31 01:49:04;;;;;;;41.72;37.58;;;4.10;1.00;;;;;;5017713;28;20182;-72
2020/12/31 01:51:30;;;;;;;40.20;36.25;;;4.10;1.00;;;;;;5017642;28;20329;-72
2020/12/31 01:53:57;;;;;;;41.13;36.75;;;4.10;1.00;;;;;;5017308;28;20229;-72
2020/12/31 01:56:30;;;;;;;37.90;33.78;;;4.00;1.00;;;;;;5016946;28;20286;-72
2020/12/31 01:58:57;;;;;;;41.95;37.90;;;4.00;1.00;;;;;;5017467;28;20167;-72
2020/12/31 02:01:23;;;;;;;44.10;39.72;;;4.00;1.00;;;;;;5017244;28;20171;-72
2020/12/31 02:03:53;;;;;;;45.83;40.53;;;4.10;1.00;;;;;;5017392;28;20178;-72
2020/12/31 02:06:21;;;;;;;42.55;38.58;;;4.00;1.00;;;;;;5016551;28;20217;-72
2020/12/31 02:08:48;;;;;;;42.75;38.17;;;4.00;1.00;;;;;;5016807;28;20252;-72
2020/12/31 02:11:16;;;;;;;39.50;35.42;;;4.00;1.00;;;;;;5016949;28;20175;-72
2020/12/31 02:13:42;;;;;;;40.20;36.20;;;4.00;1.00;;;;;;5017237;28;20230;-71
2020/12/31 02:16:23;;;;;;;41.10;37.35;;;4.00;1.00;;;;;;5016658;28;20270;-72
2020/12/31 02:18:50;;;;;;;43.75;39.13;;;3.90;1.00;;;;;;5016816;28;20621;-71
2020/12/31 02:21:21;;;;;;;45.75;37.40;;;3.80;1.00;;;;;;5016807;28;20182;-71
2020/12/31 02:23:48;;;;;;;42.08;37.55;;;3.80;1.00;;;;;;5016725;28;20175;-72
2020/12/31 02:26:13;;;;;;;36.78;33.30;;;3.80;1.00;;;;;;5016358;28;20175;-72
2020/12/31 02:28:39;;;;;;;39.93;33.20;;;3.80;1.00;;;;;;5048749;28;20258;-72
2020/12/31 02:31:05;;;;;;;40.53;35.90;;;3.80;1.00;;;;;;5016951;28;20254;-71
2020/12/31 02:33:30;;;;;;;42.03;37.57;;;3.70;1.00;;;;;;5017237;28;20210;-72
2020/12/31 02:35:56;;;;;;;39.77;36.03;;;3.70;1.00;;;;;;5047914;28;20410;-72
2020/12/31 02:38:21;;;;;;;40.23;36.20;;;3.80;1.00;;;;;;5015466;28;20203;-72
2020/12/31 02:40:47;;;;;;;40.70;36.07;;;3.70;1.00;;;;;;5016198;28;20171;-72
2020/12/31 02:43:13;;;;;;;43.87;38.50;;;3.70;1.00;;;;;;5016664;28;20225;-72
2020/12/31 02:45:38;;;;;;;46.77;42.00;;;3.80;1.00;;;;;;5016450;28;20179;-72
2020/12/31 02:48:04;;;;;;;42.00;37.73;;;3.80;1.00;;;;;;5016036;28;20191;-72
2020/12/31 02:50:29;;;;;;;43.17;38.97;;;3.80;1.00;;;;;;5016309;28;20206;-71
2020/12/31 02:52:55;;;;;;;45.43;41.30;;;3.80;1.00;;;;;;5015883;28;20179;-71
2020/12/31 02:55:20;;;;;;;47.43;42.73;;;3.70;1.00;;;;;;5016258;28;20254;-72
2020/12/31 02:57:46;;;;;;;43.33;39.13;;;3.80;1.00;;;;;;5016103;28;20207;-72
2020/12/31 03:00:11;;;;;;;44.17;39.97;;;3.70;1.00;;;;;;5016423;28;20163;-72
2020/12/31 03:02:37;;;;;;;44.00;40.33;;;3.80;1.00;;;;;;5015736;28;20238;-72
2020/12/31 03:05:02;;;;;;;50.33;46.03;;;3.80;1.00;;;;;;5015861;28;20224;-72
2020/12/31 03:07:28;;;;;;;42.53;38.17;;;3.80;1.00;;;;;;5015333;28;20298;-72
2020/12/31 03:09:53;;;;;;;43.50;39.30;;;3.70;1.00;;;;;;5015975;28;20203;-72
2020/12/31 03:12:19;;;;;;;43.37;38.63;;;3.70;1.00;;;;;;5016104;28;20175;-72
2020/12/31 03:14:44;;;;;;;46.10;41.90;;;3.70;1.00;;;;;;5047923;28;20618;-72
2020/12/31 03:17:10;;;;;;;41.13;37.00;;;3.70;1.00;;;;;;5015248;28;20300;-72
2020/12/31 03:19:35;;;;;;;43.63;39.53;;;3.70;1.00;;;;;;5047375;28;20178;-72
2020/12/31 03:22:01;;;;;;;46.20;42.03;;;3.70;1.00;;;;;;5015755;28;20178;-72
2020/12/31 03:24:27;;;;;;;44.97;40.40;;;3.70;1.00;;;;;;5015733;28;20179;-72
2020/12/31 03:26:52;;;;;;;45.60;41.00;;;3.70;1.00;;;;;;5015057;28;20205;-72
2020/12/31 03:29:18;;;;;;;52.83;48.40;;;3.70;1.00;;;;;;5015904;28;20230;-72
2020/12/31 03:31:43;;;;;;;49.90;45.43;;;3.60;1.00;;;;;;5015206;28;20625;-72
2020/12/31 03:34:09;;;;;;;43.07;38.87;;;3.60;1.00;;;;;;5015261;28;20629;-72
2020/12/31 03:36:34;;;;;;;46.73;42.23;;;3.60;1.00;;;;;;5014823;28;20652;-72
2020/12/31 03:39:00;;;;;;;43.47;39.10;;;3.60;1.00;;;;;;5015494;28;20525;-72
2020/12/31 03:41:25;;;;;;;53.63;48.77;;;3.70;1.00;;;;;;5015410;28;20644;-72
2020/12/31 03:43:51;;;;;;;44.50;39.80;;;3.70;1.00;;;;;;5015556;28;20237;-72
2020/12/31 03:46:16;;;;;;;39.07;34.87;;;3.70;1.00;;;;;;5014986;28;20695;-72
2020/12/31 03:48:42;;;;;;;37.97;34.20;;;3.70;1.00;;;;;;5014662;28;20175;-72
2020/12/31 03:51:07;;;;;;;38.60;34.40;;;3.70;1.00;;;;;;5015105;28;20167;-72
2020/12/31 03:53:33;;;;;;;43.53;39.00;;;3.80;1.00;;;;;;5015248;28;20485;-72
2020/12/31 03:55:58;;;;;;;41.90;37.23;;;3.80;1.00;;;;;;5014609;28;20167;-72
2020/12/31 03:58:24;;;;;;;51.33;46.80;;;3.90;1.00;;;;;;5015165;28;20293;-72
2020/12/31 04:00:49;;;;;;;44.97;40.30;;;3.90;1.00;;;;;;5014631;28;20175;-72
2020/12/31 04:03:15;;;;;;;47.13;41.47;;;4.00;1.00;;;;;;5014746;28;20174;-72
2020/12/31 04:05:40;;;;;;;43.50;38.97;;;4.00;1.00;;;;;;5014508;28;20177;-72
2020/12/31 04:08:06;;;;;;;43.00;39.30;;;4.00;1.00;;;;;;5014644;28;20305;-72
2020/12/31 04:10:31;;;;;;;42.20;38.20;;;4.10;1.00;;;;;;5014983;28;20182;-72
2020/12/31 04:12:57;;;;;;;42.33;37.83;;;4.20;1.00;;;;;;5015013;28;20237;-72
2020/12/31 04:15:23;;;;;;;47.37;43.03;;;4.20;1.00;;;;;;5014358;28;20621;-71
2020/12/31 04:17:48;;;;;;;43.63;39.53;;;4.20;1.00;;;;;;5014223;28;20234;-72
2020/12/31 04:20:14;;;;;;;47.40;42.80;;;4.20;1.00;;;;;;5014748;28;20185;-72
2020/12/31 04:22:39;;;;;;;37.80;34.17;;;4.30;1.00;;;;;;5014755;28;20174;-72
2020/12/31 04:25:05;;;;;;;42.03;37.93;;;4.30;1.00;;;;;;5014717;28;20198;-72
2020/12/31 04:27:30;;;;;;;41.87;37.87;;;4.30;1.00;;;;;;5014044;28;20203;-72
2020/12/31 04:29:56;;;;;;;39.47;35.97;;;4.30;1.00;;;;;;5014827;28;20175;-72
2020/12/31 04:32:22;;;;;;;40.37;35.43;;;4.30;1.00;;;;;;5014287;28;20178;-72
2020/12/31 04:34:47;;;;;;;35.30;32.30;;;4.30;1.00;;;;;;5014385;28;20182;-72
2020/12/31 04:37:13;;;;;;;41.23;37.43;;;4.40;1.00;;;;;;5013709;28;20207;-71
2020/12/31 04:39:38;;;;;;;41.23;37.53;;;4.30;1.00;;;;;;5014559;28;20636;-72
2020/12/31 04:42:04;;;;;;;39.37;35.67;;;4.30;1.00;;;;;;5046382;28;20270;-72
2020/12/31 04:44:30;;;;;;;38.10;34.17;;;4.30;1.00;;;;;;5013912;28;20182;-72
2020/12/31 04:46:57;;;;;;;38.37;34.70;;;4.40;1.00;;;;;;5013888;28;20262;-72
2020/12/31 04:49:28;;;;;;;40.20;36.47;;;4.40;1.00;;;;;;5045980;28;20182;-72
2020/12/31 04:51:55;;;;;;;38.03;34.47;;;4.40;1.00;;;;;;5014270;28;20171;-72
2020/12/31 04:54:22;;;;;;;37.88;34.33;;;4.40;1.00;;;;;;5014246;28;20675;-72
2020/12/31 04:56:48;;;;;;;35.13;31.40;;;4.30;1.00;;;;;;5013637;28;20702;-72
2020/12/31 04:59:13;;;;;;;38.03;34.27;;;4.40;1.00;;;;;;5014010;28;20171;-72
2020/12/31 05:01:45;;;;;;;42.83;38.53;;;4.40;1.00;;;;;;5045169;28;20198;-72
2020/12/31 05:04:12;;;;;;;40.33;36.28;;;4.30;1.00;;;;;;5045792;28;20183;-72
2020/12/31 05:06:39;;;;;;;38.88;34.83;;;4.30;1.00;;;;;;5045359;28;20194;-72
2020/12/31 05:09:19;;;;;;;41.22;35.25;;;4.40;1.00;;;;;;5014297;28;20637;-72
2020/12/31 05:11:51;;;;;;;43.33;39.08;;;4.40;1.00;;;;;;5014301;28;20178;-72
2020/12/31 05:14:33;;;;;;;46.85;42.30;;;4.40;1.00;;;;;;5013856;28;20166;-72
2020/12/31 05:17:14;;;;;;;41.70;37.53;;;4.40;1.00;;;;;;5013444;28;20226;-72
2020/12/31 05:19:40;;;;;;;48.97;43.13;;;4.40;1.00;;;;;;5014206;28;20209;-72
2020/12/31 05:22:16;;;;;;;46.83;42.40;;;4.40;1.00;;;;;;5013608;28;20175;-72
2020/12/31 05:24:44;;;;;;;44.28;39.75;;;4.30;1.00;;;;;;5014168;28;20637;-72
2020/12/31 05:27:24;;;;;;;44.15;39.72;;;4.40;1.00;;;;;;5013610;28;20703;-72
2020/12/31 05:30:07;;;;;;;45.25;40.67;;;4.50;1.00;;;;;;5014329;28;20495;-72
2020/12/31 05:32:38;;;;;;;51.78;47.05;;;4.50;1.00;;;;;;5045298;28;20238;-72
2020/12/31 05:35:16;;;;;;;51.38;46.65;;;4.40;1.00;;;;;;5013716;28;20163;-72
2020/12/31 05:37:41;;;;;;;45.45;41.10;;;4.50;1.00;;;;;;5013548;28;20290;-72
2020/12/31 05:40:12;;;;;;;42.80;38.77;;;4.50;1.00;;;;;;5014006;28;20206;-72
2020/12/31 05:42:40;;;;;;;43.83;39.28;;;4.50;1.00;;;;;;5013818;28;20218;-72
2020/12/31 05:45:16;;;;;;;40.92;36.92;;;4.50;1.00;;;;;;5013406;28;20179;-72
2020/12/31 05:47:51;;;;;;;43.35;39.20;;;4.50;1.00;;;;;;5013471;28;20260;-72
2020/12/31 05:50:29;;;;;;;46.45;42.22;;;4.40;1.00;;;;;;5013728;28;20178;-72
2020/12/31 05:52:55;;;;;;;43.00;39.10;;;4.40;1.00;;;;;;5013747;28;20168;-72
2020/12/31 05:55:24;;;;;;;41.38;37.17;;;4.30;1.00;;;;;;5013429;28;20653;-72
2020/12/31 05:57:54;;;;;;;39.40;35.15;;;4.40;1.00;;;;;;5013157;28;20230;-72
2020/12/31 06:00:29;;;;;;;42.20;38.17;;;4.40;1.00;;;;;;5013477;28;20171;-72
2020/12/31 06:02:55;;;;;;;40.90;36.67;;;4.40;1.00;;;;;;5013612;28;20163;-72
2020/12/31 06:05:22;;;;;;;38.28;34.15;;;4.30;1.00;;;;;;5045477;28;20625;-72
2020/12/31 06:07:53;;;;;;;38.22;34.20;;;4.30;1.00;;;;;;5044812;28;20219;-72
2020/12/31 06:10:21;;;;;;;36.35;33.28;;;4.30;1.00;;;;;;5045080;28;20544;-72
2020/12/31 06:12:48;;;;;;;42.03;37.75;;;4.30;1.00;;;;;;5015109;28;20543;-72
2020/12/31 06:15:37;;;;;;;40.38;36.60;;;4.30;1.00;;;;;;5016973;28;20167;-72
2020/12/31 06:18:05;;;;;;;39.60;35.42;;;4.30;1.00;;;;;;5016888;28;20207;-72
2020/12/31 06:20:32;;;;;;;39.90;35.83;;;4.30;1.00;;;;;;5016542;28;20174;-72
2020/12/31 06:23:11;;;;;;;41.90;37.67;;;4.30;1.00;;;;;;5016662;28;20175;-72
2020/12/31 06:25:39;;;;;;;37.53;33.30;;;4.40;1.00;;;;;;5016574;28;20167;-72
2020/12/31 06:28:09;;;;;;;37.92;34.22;;;4.40;1.00;;;;;;5048670;28;20203;-72
2020/12/31 06:30:36;;;;;;;40.67;36.78;;;4.50;1.00;;;;;;5017016;28;20229;-72
2020/12/31 06:33:39;;;;;;;47.33;43.15;;;4.50;1.00;;;;;;5016354;28;20171;-72
2020/12/31 06:36:05;;;;;;;45.17;40.72;;;4.40;1.00;;;;;;5016387;28;20167;-72
2020/12/31 06:38:35;;;;;;;43.77;39.57;;;4.40;1.00;;;;;;5016667;28;20195;-72
2020/12/31 06:41:03;;;;;;;39.60;36.15;;;4.40;1.00;;;;;;5016548;28;20246;-72
2020/12/31 06:43:37;;;;;;;40.33;36.75;;;4.40;1.00;;;;;;5016153;28;20186;-72
2020/12/31 06:46:19;;;;;;;36.35;32.55;;;4.40;1.00;;;;;;5015839;28;20167;-72
2020/12/31 06:48:53;;;;;;;40.65;37.15;;;4.20;1.00;;;;;;5048358;28;20179;-71
2020/12/31 06:51:25;;;;;;;35.75;32.17;;;4.30;1.00;;;;;;5016562;28;20628;-72
2020/12/31 06:53:51;;;;;;;36.63;33.25;;;4.30;1.00;;;;;;5015921;28;20182;-72
2020/12/31 06:56:46;;;;;;;38.60;34.38;;;4.30;1.00;;;;;;5015799;28;20179;-72
2020/12/31 06:59:33;;;;;;;36.00;32.28;;;4.30;1.00;;;;;;5016418;28;20162;-72
2020/12/31 07:02:00;;;;;;;34.05;30.90;;;4.30;1.00;;;;;;5016422;28;20172;-72
2020/12/31 07:04:39;;;;;;;39.22;35.40;;;4.10;1.00;;;;;;5015905;28;20586;-72
2020/12/31 07:07:25;;;;;;;38.63;35.17;;;4.10;1.00;;;;;;5015331;28;20242;-72
2020/12/31 07:10:01;;;;;;;41.90;38.05;;;4.10;1.00;;;;;;5016055;28;20162;-72
2020/12/31 07:12:37;;;;;;;32.60;29.60;;;4.00;1.00;;;;;;5048078;28;20631;-71
2020/12/31 07:15:05;;;;;;;35.72;32.50;;;4.10;1.00;;;;;;5015702;28;20190;-72
2020/12/31 07:17:37;;;;;;;40.30;36.40;;;4.10;1.00;;;;;;5015517;28;20195;-72
2020/12/31 07:20:05;;;;;;;36.63;33.20;;;4.10;1.00;;;;;;5016025;28;20351;-72
2020/12/31 07:22:31;;;;;;;37.28;33.83;;;4.10;1.00;;;;;;5047663;28;20171;-72
2020/12/31 07:25:08;;;;;;;38.77;35.37;;;4.10;1.00;;;;;;5015433;28;20568;-72
2020/12/31 07:27:35;;;;;;;34.30;30.92;;;4.10;1.00;;;;;;5015327;28;20644;-72
2020/12/31 07:30:09;;;;;;;34.85;31.30;;;4.10;1.00;;;;;;5015674;28;20175;-72
2020/12/31 07:32:57;;;;;;;38.00;34.20;;;4.20;1.00;;;;;;5015546;28;20175;-72
2020/12/31 07:35:43;;;;;;;36.17;32.97;;;4.20;1.00;;;;;;5015523;28;20207;-72
2020/12/31 07:38:15;;;;;;;37.42;33.83;;;4.10;1.00;;;;;;5015209;28;20529;-72
2020/12/31 07:40:45;;;;;;;42.17;38.50;;;4.10;1.00;;;;;;5047292;28;20533;-72
2020/12/31 07:43:24;;;;;;;36.55;33.05;;;4.10;1.00;;;;;;5015515;28;20226;-72
2020/12/31 07:45:57;;;;;;;32.83;29.88;;;4.10;1.00;;;;;;5015137;28;20175;-72
2020/12/31 07:48:24;;;;;;;36.90;33.45;;;4.10;1.00;;;;;;5047141;28;20560;-72
2020/12/31 07:50:58;;;;;;;37.05;33.85;;;4.00;1.00;;;;;;5015130;28;20179;-72
2020/12/31 07:53:25;;;;;;;37.50;33.72;;;4.00;1.00;;;;;;5015199;28;20171;-71
2020/12/31 07:55:53;;;;;;;36.85;33.65;;;4.00;1.00;;;;;;5015054;28;20184;-72
2020/12/31 07:58:20;;;;;;;34.83;31.73;;;4.00;1.00;;;;;;5014570;28;20285;-72
2020/12/31 08:01:00;;;;;;;29.40;26.55;;;4.00;1.00;;;;;;5014797;28;20179;-72
2020/12/31 08:03:26;;;;;;;32.00;29.05;;;4.00;1.00;;;;;;5046601;28;20274;-72
2020/12/31 08:05:58;;;;;;;30.90;27.93;;;4.00;1.00;;;;;;5014811;28;20199;-72
2020/12/31 08:08:24;;;;;;;37.35;34.03;;;4.00;1.00;;;;;;5046100;28;20458;-72
2020/12/31 08:10:50;;;;;;;32.45;29.50;;;4.10;1.00;;;;;;5014319;28;20718;-72
2020/12/31 08:13:17;;;;;;;33.10;30.00;;;4.10;1.00;;;;;;5014762;28;20179;-72
2020/12/31 08:15:52;;;;;;;35.08;31.90;;;4.20;1.00;;;;;;5014393;28;20229;-72
2020/12/31 08:18:18;;;;;;;39.72;36.13;;;4.20;1.00;;;;;;5014818;28;20202;-72
2020/12/31 08:20:45;;;;;;;33.88;30.80;;;4.20;1.00;;;;;;5014941;28;20163;-71
2020/12/31 08:23:17;;;;;;;33.03;30.10;;;4.10;1.00;;;;;;5014945;28;20183;-72
2020/12/31 08:25:45;;;;;;;32.33;29.60;;;4.10;1.00;;;;;;5014311;28;20537;-72
2020/12/31 08:28:10;;;;;;;33.45;30.25;;;4.10;1.00;;;;;;5014140;28;20199;-72
2020/12/31 08:30:37;;;;;;;33.47;30.77;;;4.10;1.00;;;;;;5011396;28;20183;-72
2020/12/31 08:33:06;;;;;;;37.28;34.08;;;4.10;1.00;;;;;;5014719;28;20190;-71
2020/12/31 08:35:43;;;;;;;36.63;33.33;;;4.10;1.00;;;;;;5013721;28;20234;-71
2020/12/31 08:38:17;;;;;;;38.72;35.72;;;4.10;1.00;;;;;;5014281;28;20283;-71
2020/12/31 08:40:48;;;;;;;32.38;29.63;;;4.20;1.00;;;;;;5014300;28;20171;-71
2020/12/31 08:43:31;;;;;;;29.63;27.20;;;4.10;1.00;;;;;;5014436;28;20194;-72
2020/12/31 08:45:57;;;;;;;31.65;28.95;;;4.10;1.00;;;;;;5014267;28;20171;-71
2020/12/31 08:48:28;;;;;;;30.17;27.63;;;4.20;1.00;;;;;;5014822;28;20278;-71
2020/12/31 08:51:07;;;;;;;30.95;27.75;;;4.20;1.00;;;;;;5014229;28;20507;-71
2020/12/31 08:53:50;;;;;;;39.85;36.65;;;4.20;1.00;;;;;;5014422;28;20194;-71
2020/12/31 08:56:16;;;;;;;38.80;34.90;;;4.30;1.00;;;;;;5013995;28;20190;-71
2020/12/31 08:58:41;;;;;;;43.28;38.80;;;4.30;1.00;;;;;;5008080;28;20203;-71
2020/12/31 09:01:07;;;;;;;36.63;33.03;;;4.40;1.00;;;;;;5002479;28;20209;-71
2020/12/31 09:03:33;;;;;;;33.97;31.20;;;4.40;1.00;;;;;;5004443;28;20183;-71
2020/12/31 09:06:00;;;;;;;31.73;29.13;;;4.40;1.00;;;;;;5003347;28;20176;-71
2020/12/31 09:08:31;;;;;;;32.70;30.17;;;4.40;1.00;;;;;;5004988;28;20764;-71
2020/12/31 09:11:05;;;;;;;33.25;30.58;;;4.30;1.00;;;;;;5003813;28;20175;-71
2020/12/31 09:13:36;;;;;;;37.47;34.58;;;4.40;1.00;;;;;;5005726;28;20536;-71
2020/12/31 09:16:14;;;;;;;32.38;29.48;;;4.40;1.00;;;;;;5013509;28;20258;-72
2020/12/31 09:18:40;;;;;;;37.35;34.35;;;4.40;1.00;;;;;;5014230;28;20671;-71
2020/12/31 09:21:07;;;;;;;34.03;31.25;;;4.40;1.00;;;;;;5014517;28;20605;-72
2020/12/31 09:23:33;;;;;;;34.45;31.45;;;4.30;1.00;;;;;;5014198;28;20172;-71
2020/12/31 09:25:59;;;;;;;33.58;30.88;;;4.30;1.00;;;;;;5013287;28;20172;-72
2020/12/31 09:28:25;;;;;;;34.58;31.63;;;4.40;1.00;;;;;;5012160;28;20278;-70
2020/12/31 09:30:52;;;;;;;34.42;31.95;;;4.40;1.00;;;;;;5010580;28;20176;-71
2020/12/31 09:33:20;;;;;;;34.97;32.08;;;4.50;1.00;;;;;;5005292;28;20180;-71
2020/12/31 09:35:46;;;;;;;33.78;31.17;;;4.50;1.00;;;;;;5004181;28;20187;-72
2020/12/31 09:38:12;;;;;;;36.87;33.73;;;4.40;1.00;;;;;;4994370;28;20203;-72
2020/12/31 09:40:38;;;;;;;34.40;31.05;;;4.50;1.00;;;;;;4994168;28;20803;-72
2020/12/31 09:43:04;;;;;;;37.80;34.63;;;4.50;1.00;;;;;;4994017;28;20196;-72
2020/12/31 09:45:30;;;;;;;35.67;32.70;;;4.50;1.00;;;;;;4993952;28;20195;-72
2020/12/31 09:48:02;;;;;;;37.63;34.73;;;4.60;1.00;;;;;;4995778;28;21021;-72
2020/12/31 09:50:28;;;;;;;33.05;30.40;;;4.60;1.00;;;;;;4998055;28;20401;-72
2020/12/31 09:52:54;;;;;;;28.43;25.73;;;4.70;1.00;;;;;;4998165;28;20177;-72
2020/12/31 09:55:20;;;;;;;29.98;27.63;;;4.60;1.00;;;;;;4997625;28;21001;-72
2020/12/31 09:57:45;;;;;;;31.07;28.40;;;4.60;1.00;;;;;;4997401;28;20322;-72
2020/12/31 10:00:12;;;;;;;30.87;28.27;;;4.70;1.00;;;;;;4997694;28;20171;-72
2020/12/31 10:02:38;;;;;;;32.13;29.42;;;4.60;1.00;;;;;;4997820;28;20172;-72
2020/12/31 10:05:04;;;;;;;33.58;30.80;;;4.60;1.00;;;;;;4997848;28;20168;-72
2020/12/31 10:07:30;;;;;;;33.20;30.23;;;4.60;1.00;;;;;;4996874;28;20221;-72
2020/12/31 10:09:55;;;;;;;33.33;30.90;;;4.50;1.00;;;;;;4997141;28;20206;-72
2020/12/31 10:12:21;;;;;;;26.13;23.83;;;4.50;1.00;;;;;;4997380;28;20271;-72
2020/12/31 10:14:48;;;;;;;27.83;25.50;;;4.50;1.00;;;;;;4997466;28;20629;-72
2020/12/31 10:17:13;;;;;;;26.23;24.08;;;4.60;1.00;;;;;;4996725;28;20195;-72
2020/12/31 10:19:39;;;;;;;27.23;24.97;;;4.60;1.00;;;;;;4997598;28;20172;-72
2020/12/31 10:22:04;;;;;;;28.27;26.03;;;4.60;1.00;;;;;;4997387;28;20203;-72
2020/12/31 10:24:31;;;;;;;28.20;26.10;;;4.60;1.00;;;;;;4997038;28;20645;-72
2020/12/31 10:26:56;;;;;;;28.50;26.08;;;4.70;1.00;;;;;;4996723;28;20192;-72
2020/12/31 10:29:22;;;;;;;28.17;26.00;;;4.70;1.00;;;;;;4995930;28;20499;-72
2020/12/31 10:31:52;;;;;;;27.93;25.93;;;4.80;1.00;;;;;;4997250;28;20249;-72
2020/12/31 10:34:18;;;;;;;25.80;23.95;;;4.70;1.00;;;;;;4997363;28;20221;-72
2020/12/31 10:36:52;;;;;;;26.17;23.80;;;4.70;1.00;;;;;;4996379;28;20199;-72
2020/12/31 10:39:18;;;;;;;27.45;25.33;;;4.80;1.00;;;;;;4997008;28;20171;-72
2020/12/31 10:41:46;;;;;;;30.20;27.70;;;4.80;1.00;;;;;;4997013;28;20207;-72
2020/12/31 10:44:12;;;;;;;27.48;25.50;;;4.80;1.00;;;;;;4997101;28;20402;-72
2020/12/31 10:46:38;;;;;;;22.88;21.00;;;4.80;1.00;;;;;;4996358;28;20200;-72
2020/12/31 10:49:04;;;;;;;28.13;26.27;;;4.80;1.00;;;;;;4995184;28;20175;-72
2020/12/31 10:51:33;;;;;;;31.43;29.53;;;4.80;1.00;;;;;;4995234;28;20597;-72
2020/12/31 10:53:59;;;;;;;30.00;28.10;;;4.80;1.00;;;;;;4996550;28;20168;-72
2020/12/31 10:56:24;;;;;;;24.07;22.37;;;4.90;1.00;;;;;;4996134;28;20192;-72
2020/12/31 10:58:50;;;;;;;27.27;25.27;;;4.90;1.00;;;;;;4994682;28;20238;-72
2020/12/31 11:01:15;;;;;;;26.77;24.80;;;4.90;1.00;;;;;;4996839;28;20168;-72
2020/12/31 11:03:43;;;;;;;32.77;30.30;;;4.90;1.00;;;;;;4996840;28;20650;-72
2020/12/31 11:06:22;;;;;;;26.25;24.15;;;4.90;1.00;;;;;;4995872;28;20172;-72
2020/12/31 11:08:48;;;;;;;32.33;30.23;;;5.00;1.00;;;;;;4996378;28;20274;-72
2020/12/31 11:11:30;;;;;;;29.70;27.80;;;4.80;1.00;;;;;;4994937;28;20206;-72
2020/12/31 11:13:56;;;;;;;28.27;26.33;;;4.90;1.00;;;;;;4996637;28;20569;-71
2020/12/31 11:16:22;;;;;;;27.70;25.70;;;4.90;1.00;;;;;;4995959;28;20180;-72
2020/12/31 11:18:48;;;;;;;26.20;24.30;;;4.90;1.00;;;;;;4996053;28;20204;-72
2020/12/31 11:21:15;;;;;;;27.13;25.10;;;4.90;1.00;;;;;;4996166;28;20195;-72
2020/12/31 11:23:41;;;;;;;31.27;29.17;;;4.90;1.00;;;;;;4996204;28;20243;-72
2020/12/31 11:26:26;;;;;;;27.60;25.30;;;5.00;1.00;;;;;;4995921;28;20179;-72
2020/12/31 11:28:51;;;;;;;30.70;28.40;;;5.00;1.00;;;;;;4995985;28;20622;-72
2020/12/31 11:31:28;;;;;;;32.97;30.63;;;5.00;1.00;;;;;;4995841;28;20202;-72
2020/12/31 11:33:55;;;;;;;32.33;29.90;;;5.00;1.00;;;;;;4995952;28;20178;-72
2020/12/31 11:36:24;;;;;;;33.40;31.10;;;5.10;1.00;;;;;;4995517;28;20179;-72
2020/12/31 11:38:51;;;;;;;33.25;30.73;;;4.90;1.00;;;;;;4994790;28;20203;-72
2020/12/31 11:41:17;;;;;;;35.25;32.63;;;4.90;1.00;;;;;;4995445;28;20500;-72
2020/12/31 11:43:43;;;;;;;38.13;35.27;;;4.90;1.00;;;;;;4995624;28;20172;-72
2020/12/31 11:46:09;;;;;;;34.55;31.88;;;5.00;1.00;;;;;;4995212;28;20442;-72
2020/12/31 11:48:35;;;;;;;38.93;35.93;;;5.00;1.00;;;;;;4995769;28;20208;-72
2020/12/31 11:51:02;;;;;;;41.25;38.28;;;4.90;1.00;;;;;;4994502;28;20453;-72
2020/12/31 11:53:28;;;;;;;47.25;44.13;;;4.90;1.00;;;;;;4995749;28;20263;-72
2020/12/31 11:55:54;;;;;;;45.67;42.35;;;4.80;1.00;;;;;;4995311;28;20172;-72
2020/12/31 11:58:20;;;;;;;41.50;38.35;;;4.90;1.00;;;;;;4995216;28;20211;-72
2020/12/31 12:00:46;;;;;;;45.30;42.17;;;4.80;1.00;;;;;;4995560;28;20172;-72
2020/12/31 12:03:11;;;;;;;41.43;38.57;;;4.80;1.00;;;;;;4995592;28;20454;-72
2020/12/31 12:05:37;;;;;;;38.60;36.10;;;4.90;1.00;;;;;;4995324;28;20176;-72
2020/12/31 12:08:04;;;;;;;40.67;37.37;;;4.90;1.00;;;;;;4994808;28;20207;-72
2020/12/31 12:10:30;;;;;;;40.65;37.72;;;5.00;1.00;;;;;;4995381;28;20178;-72
2020/12/31 12:12:55;;;;;;;33.03;30.63;;;4.90;1.00;;;;;;4995051;28;20533;-72
2020/12/31 12:15:21;;;;;;;45.23;42.13;;;5.00;1.00;;;;;;4995121;28;20176;-72
2020/12/31 12:17:49;;;;;;;37.50;34.77;;;5.00;1.00;;;;;;4995018;28;20680;-72
2020/12/31 12:20:15;;;;;;;40.03;37.13;;;5.00;1.00;;;;;;4995294;28;20168;-72
2020/12/31 12:22:41;;;;;;;42.15;39.15;;;5.10;1.00;;;;;;4995378;28;20618;-72
2020/12/31 12:25:07;;;;;;;36.73;34.23;;;5.00;1.00;;;;;;4994914;28;20187;-72
2020/12/31 12:27:36;;;;;;;36.92;34.03;;;5.00;1.00;;;;;;4994628;28;20434;-72
2020/12/31 12:30:07;;;;;;;38.80;35.85;;;5.00;1.00;;;;;;4994928;28;20231;-72
2020/12/31 12:32:33;;;;;;;48.83;45.42;;;5.10;1.00;;;;;;4995056;28;20168;-72
2020/12/31 12:34:59;;;;;;;39.83;37.00;;;5.10;1.00;;;;;;4995124;28;20618;-72
2020/12/31 12:37:24;;;;;;;43.53;40.37;;;5.10;1.00;;;;;;4994263;28;20470;-72
2020/12/31 12:39:51;;;;;;;49.00;46.00;;;5.00;1.00;;;;;;4994743;28;20463;-72
2020/12/31 12:42:16;;;;;;;51.33;48.13;;;5.10;1.00;;;;;;4994627;28;20251;-72
2020/12/31 12:44:42;;;;;;;62.77;59.07;;;5.10;1.00;;;;;;4994708;28;20202;-72
2020/12/31 12:47:07;;;;;;;43.37;40.17;;;5.10;1.00;;;;;;4994221;28;20557;-72
2020/12/31 12:49:33;;;;;;;43.13;40.23;;;5.10;1.00;;;;;;4994563;28;20176;-72
2020/12/31 12:52:02;;;;;;;46.60;43.30;;;5.20;1.00;;;;;;4994452;28;20176;-72
2020/12/31 12:54:28;;;;;;;41.22;38.35;;;5.10;1.00;;;;;;4994312;28;20175;-72